createdAt,value
2018-06-24T06:26:03.693Z,10.20
2018-06-24T06:28:36.150Z,10.30
2018-06-24T06:31:08.562Z,9.57
2018-06-24T06:33:40.981Z,9.10
2018-06-24T06:36:13.474Z,10.00
2018-06-24T06:38:46.729Z,8.60
2018-06-24T06:41:19.134Z,8.80
2018-06-24T06:43:52.110Z,8.50
2018-06-24T06:46:24.749Z,8.33
2018-06-24T06:48:57.169Z,8.47
2018-06-24T06:51:29.581Z,9.13
2018-06-24T06:54:02.294Z,8.83
2018-06-24T06:56:34.970Z,7.13
2018-06-24T06:59:07.368Z,7.17
2018-06-24T07:01:39.737Z,7.20
2018-06-24T07:04:12.713Z,7.53
2018-06-24T07:06:45.100Z,6.83
2018-06-24T07:09:17.498Z,6.30
2018-06-24T07:11:50.536Z,6.67
2018-06-24T07:14:23.320Z,5.80
2018-06-24T07:16:56.058Z,6.50
2018-06-24T07:19:28.738Z,5.92
2018-06-24T07:22:01.613Z,5.77
2018-06-24T07:24:34.045Z,5.57
2018-06-24T07:27:06.721Z,5.80
2018-06-24T07:29:39.097Z,5.80
2018-06-24T07:32:11.773Z,5.40
2018-06-24T07:34:44.493Z,5.10
2018-06-24T07:37:17.189Z,5.37
2018-06-24T07:39:49.583Z,5.97
2018-06-24T07:42:21.982Z,6.67
2018-06-24T07:44:54.357Z,5.60
2018-06-24T07:47:26.747Z,5.73
2018-06-24T07:49:59.125Z,5.83
2018-06-24T07:52:31.517Z,4.97
2018-06-24T07:55:03.937Z,5.30
2018-06-24T07:57:36.408Z,6.30
2018-06-24T08:00:08.892Z,5.87
2018-06-24T08:02:41.750Z,5.90
2018-06-24T08:05:14.431Z,6.37
2018-06-24T08:07:47.094Z,7.00
2018-06-24T08:10:19.528Z,5.90
2018-06-24T08:12:52.319Z,6.30
2018-06-24T08:15:25.094Z,6.30
2018-06-24T08:17:58.594Z,5.93
2018-06-24T08:20:31.354Z,7.03
2018-06-24T08:23:04.102Z,6.27
2018-06-24T08:25:36.866Z,5.63
2018-06-24T08:28:09.614Z,5.40
2018-06-24T08:30:42.334Z,6.63
2018-06-24T08:33:14.753Z,6.33
2018-06-24T08:35:47.166Z,5.90
2018-06-24T08:38:19.857Z,6.20
2018-06-24T08:40:52.267Z,5.90
2018-06-24T08:43:24.725Z,6.73
2018-06-24T08:45:57.482Z,6.77
2018-06-24T08:48:30.184Z,7.47
2018-06-24T08:51:02.585Z,6.77
2018-06-24T08:53:35.345Z,6.67
2018-06-24T08:56:08.505Z,6.40
2018-06-24T08:58:40.962Z,6.50
2018-06-24T09:01:13.398Z,6.63
2018-06-24T09:03:46.165Z,6.93
2018-06-24T09:06:18.608Z,6.90
2018-06-24T09:08:51.114Z,7.70
2018-06-24T09:11:23.535Z,6.83
2018-06-24T09:13:56.040Z,6.97
2018-06-24T09:16:28.398Z,8.20
2018-06-24T09:19:00.821Z,8.20
2018-06-24T09:21:33.250Z,7.63
2018-06-24T09:24:05.687Z,8.97
2018-06-24T09:26:38.396Z,7.90
2018-06-24T09:29:10.818Z,8.23
2018-06-24T09:31:43.786Z,9.03
2018-06-24T09:34:16.546Z,8.20
2018-06-24T09:36:49.199Z,8.17
2018-06-24T09:39:21.627Z,6.67
2018-06-24T09:41:54.030Z,8.67
2018-06-24T09:44:26.478Z,8.23
2018-06-24T09:46:59.005Z,8.43
2018-06-24T09:49:31.430Z,8.50
2018-06-24T09:52:03.927Z,6.20
2018-06-24T09:54:36.345Z,8.30
2018-06-24T09:57:09.014Z,6.37
2018-06-24T09:59:41.705Z,5.80
2018-06-24T10:02:14.397Z,6.40
2018-06-24T10:04:46.794Z,5.60
2018-06-24T10:07:19.188Z,6.43
2018-06-24T10:09:51.573Z,6.20
2018-06-24T10:12:23.970Z,5.50
2018-06-24T10:14:56.356Z,4.50
2018-06-24T10:17:28.760Z,4.93
2018-06-24T10:20:01.170Z,4.60
2018-06-24T10:22:33.546Z,4.70
2018-06-24T10:25:05.978Z,4.87
2018-06-24T10:27:38.670Z,4.90
2018-06-24T10:30:11.066Z,4.20
2018-06-24T10:32:43.721Z,4.33
2018-06-24T10:35:16.114Z,4.20
2018-06-24T10:37:48.786Z,4.33
2018-06-24T10:40:21.176Z,3.90
2018-06-24T10:42:53.565Z,3.70
2018-06-24T10:45:25.961Z,4.20
2018-06-24T10:47:58.337Z,3.47
2018-06-24T10:50:30.989Z,3.70
2018-06-24T10:53:03.483Z,3.20
2018-06-24T10:55:35.857Z,2.93
2018-06-24T10:58:08.429Z,2.98
2018-06-24T11:00:41.152Z,3.75
2018-06-24T11:03:13.525Z,2.90
2018-06-24T11:05:45.924Z,3.50
2018-06-24T11:08:18.297Z,3.47
2018-06-24T11:10:50.686Z,3.10
2018-06-24T11:13:23.371Z,3.10
2018-06-24T11:15:56.013Z,2.40
2018-06-24T11:18:28.672Z,2.47
2018-06-24T11:21:01.368Z,2.37
2018-06-24T11:23:34.038Z,2.80
2018-06-24T11:26:06.721Z,2.07
2018-06-24T11:28:39.485Z,2.13
2018-06-24T11:31:12.085Z,2.62
2018-06-24T11:33:44.461Z,2.00
2018-06-24T11:36:16.850Z,2.50
2018-06-24T11:38:49.312Z,2.63
2018-06-24T11:41:21.965Z,2.20
2018-06-24T11:43:54.357Z,2.23
2018-06-24T11:46:27.057Z,2.00
2018-06-24T11:48:59.777Z,2.03
2018-06-24T11:51:32.405Z,2.53
2018-06-24T11:54:04.987Z,2.40
2018-06-24T11:56:37.406Z,2.20
2018-06-24T11:59:09.989Z,2.10
2018-06-24T12:01:42.496Z,1.83
2018-06-24T12:04:15.476Z,1.53
2018-06-24T12:06:48.109Z,1.70
2018-06-24T12:09:20.758Z,1.95
2018-06-24T12:11:53.537Z,1.97
2018-06-24T12:14:25.949Z,1.90
2018-06-24T12:16:58.365Z,1.67
2018-06-24T12:19:30.771Z,1.67
2018-06-24T12:22:09.945Z,1.47
2018-06-24T12:24:42.355Z,1.97
2018-06-24T12:27:15.065Z,1.70
2018-06-24T12:32:26.457Z,1.67
2018-06-24T12:34:59.209Z,1.63
2018-06-24T12:37:32.174Z,1.67
2018-06-24T12:40:04.862Z,1.47
2018-06-24T12:42:37.349Z,1.60
2018-06-24T12:45:09.765Z,1.70
2018-06-24T12:47:42.167Z,1.97
2018-06-24T12:50:14.883Z,1.90
2018-06-24T12:52:47.373Z,1.50
2018-06-24T12:55:20.034Z,1.30
2018-06-24T12:57:52.781Z,1.93
2018-06-24T13:00:25.695Z,1.80
2018-06-24T13:02:57.602Z,1.90
2018-06-24T13:05:30.111Z,1.60
2018-06-24T13:08:02.758Z,1.97
2018-06-24T13:10:35.198Z,1.77
2018-06-24T13:13:07.609Z,1.70
2018-06-24T13:15:40.038Z,1.83
2018-06-24T13:18:12.441Z,1.70
2018-06-24T13:20:44.869Z,1.50
2018-06-24T13:23:17.282Z,1.53
2018-06-24T13:25:50.130Z,1.73
2018-06-24T13:28:22.526Z,1.77
2018-06-24T13:30:55.046Z,1.90
2018-06-24T13:33:27.757Z,1.90
2018-06-24T13:36:00.437Z,1.70
2018-06-24T13:38:33.073Z,1.63
2018-06-24T13:41:06.101Z,2.10
2018-06-24T13:43:38.778Z,2.07
2018-06-24T13:46:11.322Z,1.60
2018-06-24T13:48:43.997Z,1.80
2018-06-24T13:51:16.441Z,2.10
2018-06-24T13:53:48.887Z,2.33
2018-06-24T13:56:21.309Z,1.90
2018-06-24T13:58:53.955Z,2.03
2018-06-24T14:01:26.686Z,2.10
2018-06-24T14:03:59.104Z,2.20
2018-06-24T14:06:31.529Z,1.90
2018-06-24T14:09:07.423Z,2.10
2018-06-24T14:11:40.315Z,2.17
2018-06-24T14:14:12.831Z,1.93
2018-06-24T14:16:45.256Z,2.10
2018-06-24T14:19:17.800Z,2.00
2018-06-24T14:21:50.297Z,2.00
2018-06-24T14:24:22.689Z,2.17
2018-06-24T14:26:55.468Z,1.70
2018-06-24T14:29:28.189Z,2.10
2018-06-24T14:32:01.190Z,2.20
2018-06-24T14:34:33.580Z,1.93
2018-06-24T14:37:06.000Z,2.57
2018-06-24T14:39:38.422Z,2.30
2018-06-24T14:42:10.848Z,2.37
2018-06-24T14:44:43.481Z,2.00
2018-06-24T14:47:15.901Z,2.47
2018-06-24T14:49:48.630Z,2.40
2018-06-24T14:52:21.386Z,2.70
2018-06-24T14:54:53.782Z,2.40
2018-06-24T14:57:26.442Z,1.97
2018-06-24T14:59:59.102Z,2.37
2018-06-24T15:02:31.818Z,2.50
2018-06-24T15:05:04.213Z,2.10
2018-06-24T15:07:36.694Z,2.33
2018-06-24T15:10:09.161Z,2.13
2018-06-24T15:12:41.901Z,2.43
2018-06-24T15:15:14.597Z,2.60
2018-06-24T15:17:46.824Z,2.40
2018-06-24T15:20:19.233Z,2.03
2018-06-24T15:22:51.898Z,2.30
2018-06-24T15:25:24.281Z,1.90
2018-06-24T15:27:56.593Z,1.80
2018-06-24T15:30:28.986Z,2.07
2018-06-24T15:33:01.385Z,2.27
2018-06-24T15:35:33.757Z,2.57
2018-06-24T15:38:06.189Z,2.50
2018-06-24T15:40:38.566Z,2.00
2018-06-24T15:43:11.001Z,2.30
2018-06-24T15:45:43.525Z,2.20
2018-06-24T15:48:15.947Z,2.23
2018-06-24T15:50:48.330Z,2.90
2018-06-24T15:53:20.941Z,2.40
2018-06-24T15:55:53.388Z,2.27
2018-06-24T15:58:26.046Z,2.23
2018-06-24T16:00:58.681Z,2.50
2018-06-24T16:03:31.070Z,2.07
2018-06-24T16:06:03.480Z,2.40
2018-06-24T16:08:35.875Z,2.83
2018-06-24T16:11:08.363Z,2.53
2018-06-24T16:13:41.034Z,1.97
2018-06-24T16:16:13.401Z,2.90
2018-06-24T16:18:46.246Z,2.30
2018-06-24T16:21:18.896Z,3.00
2018-06-24T16:23:51.045Z,2.50
2018-06-24T16:26:23.449Z,2.50
2018-06-24T16:28:56.102Z,3.50
2018-06-24T16:31:28.821Z,2.67
2018-06-24T16:34:01.222Z,2.43
2018-06-24T16:36:33.873Z,3.30
2018-06-24T16:39:07.840Z,3.13
2018-06-24T16:41:40.230Z,2.83
2018-06-24T16:44:12.613Z,2.60
2018-06-24T16:46:44.992Z,2.30
2018-06-24T16:49:17.417Z,2.47
2018-06-24T16:51:49.797Z,2.20
2018-06-24T16:54:22.230Z,2.20
2018-06-24T16:56:54.686Z,2.33
2018-06-24T16:59:27.433Z,2.10
2018-06-24T17:02:00.113Z,2.97
2018-06-24T17:04:32.559Z,2.27
2018-06-24T17:07:04.970Z,1.90
2018-06-24T17:09:37.385Z,2.20
2018-06-24T17:12:09.789Z,2.20
2018-06-24T17:14:42.032Z,2.00
2018-06-24T17:17:14.473Z,2.40
2018-06-24T17:19:46.950Z,2.60
2018-06-24T17:22:19.589Z,2.10
2018-06-24T17:24:52.015Z,2.40
2018-06-24T17:27:24.985Z,2.40
2018-06-24T17:29:57.429Z,2.50
2018-06-24T17:32:29.834Z,2.87
2018-06-24T17:35:02.822Z,2.70
2018-06-24T17:37:35.218Z,3.40
2018-06-24T17:40:08.277Z,2.80
2018-06-24T17:42:40.677Z,2.67
2018-06-24T17:45:13.105Z,3.20
2018-06-24T17:47:45.890Z,2.90
2018-06-24T17:50:18.326Z,3.03
2018-06-24T17:52:50.797Z,3.00
2018-06-24T17:55:23.228Z,4.20
2018-06-24T17:57:55.633Z,2.90
2018-06-24T18:00:28.382Z,3.23
2018-06-24T18:03:00.834Z,3.40
2018-06-24T18:05:33.530Z,3.40
2018-06-24T18:08:06.517Z,3.33
2018-06-24T18:10:39.253Z,3.63
2018-06-24T18:13:11.944Z,3.40
2018-06-24T18:15:44.358Z,3.30
2018-06-24T18:18:16.761Z,3.60
2018-06-24T18:20:49.181Z,3.40
2018-06-24T18:23:21.607Z,3.00
2018-06-24T18:25:54.028Z,3.40
2018-06-24T18:28:26.681Z,3.30
2018-06-24T18:30:59.094Z,3.53
2018-06-24T18:33:31.837Z,3.13
2018-06-24T18:36:04.754Z,3.43
2018-06-24T18:38:37.169Z,3.30
2018-06-24T18:41:09.565Z,3.10
2018-06-24T18:43:42.251Z,3.33
2018-06-24T18:46:15.027Z,3.27
2018-06-24T18:48:47.443Z,3.37
2018-06-24T18:51:20.118Z,3.83
2018-06-24T18:53:52.860Z,3.17
2018-06-24T18:56:25.281Z,3.80
2018-06-24T18:58:57.665Z,3.80
2018-06-24T19:01:30.625Z,3.87
2018-06-24T19:04:03.354Z,3.77
2018-06-24T19:06:35.753Z,3.93
2018-06-24T19:09:08.392Z,3.60
2018-06-24T19:11:41.125Z,3.30
2018-06-24T19:14:13.658Z,3.13
2018-06-24T19:16:46.286Z,3.00
2018-06-24T19:19:18.693Z,3.30
2018-06-24T19:21:51.082Z,3.10
2018-06-24T19:24:23.733Z,2.90
2018-06-24T19:26:56.150Z,2.60
2018-06-24T19:29:28.857Z,3.03
2018-06-24T19:32:01.112Z,2.73
2018-06-24T19:34:33.719Z,3.27
2018-06-24T19:37:06.091Z,3.00
2018-06-24T19:39:38.753Z,2.97
2018-06-24T19:42:11.151Z,2.60
2018-06-24T19:44:43.889Z,2.77
2018-06-24T19:47:16.270Z,2.50
2018-06-24T19:49:48.721Z,2.90
2018-06-24T19:52:21.087Z,2.67
2018-06-24T19:54:53.681Z,2.77
2018-06-24T19:57:26.306Z,2.63
2018-06-24T19:59:58.925Z,2.90
2018-06-24T20:02:31.370Z,2.77
2018-06-24T20:05:04.221Z,2.60
2018-06-24T20:07:36.854Z,3.00
2018-06-24T20:10:09.269Z,3.13
2018-06-24T20:12:41.686Z,3.13
2018-06-24T20:15:14.305Z,3.50
2018-06-24T20:17:46.717Z,3.00
2018-06-24T20:20:19.129Z,2.97
2018-06-24T20:22:51.526Z,3.30
2018-06-24T20:25:24.291Z,3.17
